createdAt,value
2017-05-13T00:00:35.894Z,82.20
2017-05-13T00:03:05.681Z,82.80
2017-05-13T00:05:34.743Z,83.30
2017-05-13T00:08:03.886Z,83.30
2017-05-13T00:10:33.700Z,83.20
2017-05-13T00:13:02.795Z,83.00
2017-05-13T00:15:32.617Z,83.20
2017-05-13T00:18:02.398Z,83.30
2017-05-13T00:20:31.497Z,83.40
2017-05-13T00:23:00.625Z,83.70
2017-05-13T00:25:30.537Z,83.60
2017-05-13T00:28:00.330Z,83.50
2017-05-13T00:30:29.403Z,84.00
2017-05-13T00:32:58.541Z,84.50
2017-05-13T00:35:28.466Z,84.90
2017-05-13T00:37:58.242Z,85.10
2017-05-13T00:40:27.459Z,85.30
2017-05-13T00:42:56.495Z,85.20
2017-05-13T00:45:25.754Z,85.20
2017-05-13T00:47:54.853Z,85.10
2017-05-13T00:50:24.682Z,84.60
2017-05-13T00:52:53.777Z,84.00
2017-05-13T00:55:23.673Z,83.80
2017-05-13T00:57:53.471Z,83.70
2017-05-13T01:00:22.588Z,83.40
2017-05-13T01:02:52.381Z,83.30
2017-05-13T01:05:21.489Z,83.30
2017-05-13T01:07:51.319Z,83.20
2017-05-13T01:10:20.401Z,83.00
2017-05-13T01:12:50.214Z,82.80
2017-05-13T01:15:20.019Z,82.70
2017-05-13T01:17:49.060Z,82.60
2017-05-13T01:20:18.126Z,83.20
2017-05-13T01:22:47.916Z,83.00
2017-05-13T01:25:17.120Z,83.30
2017-05-13T01:27:46.229Z,83.00
2017-05-13T01:30:16.037Z,83.10
2017-05-13T01:32:45.836Z,83.50
2017-05-13T01:35:14.906Z,83.70
2017-05-13T01:37:44.046Z,84.00
2017-05-13T01:40:13.875Z,84.30
2017-05-13T01:42:42.908Z,84.10
2017-05-13T01:45:12.125Z,83.80
2017-05-13T01:47:41.167Z,83.40
2017-05-13T01:50:10.239Z,83.30
2017-05-13T01:52:40.054Z,83.90
2017-05-13T01:55:09.966Z,83.60
2017-05-13T01:57:39.777Z,83.90
2017-05-13T02:00:09.795Z,83.40
2017-05-13T02:02:38.898Z,83.90
2017-05-13T02:05:08.811Z,84.10
2017-05-13T02:07:38.633Z,83.70
2017-05-13T02:10:08.529Z,83.40
2017-05-13T02:12:38.350Z,83.20
2017-05-13T02:15:07.503Z,83.30
2017-05-13T02:17:37.286Z,83.50
2017-05-13T02:20:06.353Z,83.10
2017-05-13T02:22:35.402Z,82.00
2017-05-13T02:25:05.218Z,81.80
2017-05-13T02:27:35.031Z,81.20
2017-05-13T02:30:04.957Z,80.50
2017-05-13T02:32:34.002Z,81.00
2017-05-13T02:35:03.075Z,81.60
2017-05-13T02:37:32.124Z,81.30
2017-05-13T02:40:01.233Z,78.50
2017-05-13T02:42:31.018Z,79.50
2017-05-13T02:45:00.076Z,81.00
2017-05-13T02:47:29.125Z,79.50
2017-05-13T02:49:58.179Z,80.70
2017-05-13T02:52:27.352Z,80.90
2017-05-13T02:54:56.415Z,80.20
2017-05-13T02:57:25.475Z,79.20
2017-05-13T02:59:54.618Z,80.30
2017-05-13T03:02:24.406Z,79.90
2017-05-13T03:04:53.527Z,80.50
2017-05-13T03:07:23.311Z,80.90
2017-05-13T03:09:52.371Z,81.70
2017-05-13T03:12:21.419Z,82.90
2017-05-13T03:14:50.517Z,82.30
2017-05-13T03:17:20.329Z,81.20
2017-05-13T03:19:50.139Z,80.60
2017-05-13T03:22:19.175Z,80.60
2017-05-13T03:24:48.234Z,81.90
2017-05-13T03:27:17.430Z,82.10
2017-05-13T03:29:46.533Z,81.80
2017-05-13T03:32:16.353Z,81.20
2017-05-13T03:34:46.253Z,81.30
2017-05-13T03:37:16.083Z,79.80
2017-05-13T03:39:45.889Z,80.00
2017-05-13T03:42:15.711Z,78.50
2017-05-13T03:44:45.614Z,79.20
2017-05-13T03:47:15.437Z,79.30
2017-05-13T03:49:45.235Z,80.00
2017-05-13T03:52:15.049Z,79.50
2017-05-13T03:54:44.863Z,79.60
2017-05-13T03:57:14.645Z,78.00
2017-05-13T03:59:43.782Z,78.80
2017-05-13T04:02:13.626Z,77.80
2017-05-13T04:04:42.739Z,78.20
2017-05-13T04:07:12.019Z,78.40
2017-05-13T04:09:41.116Z,79.00
2017-05-13T04:12:10.263Z,79.80
2017-05-13T04:14:39.360Z,77.50
2017-05-13T04:17:08.448Z,78.80
2017-05-13T04:19:38.344Z,76.10
2017-05-13T04:22:08.150Z,79.20
2017-05-13T04:24:37.202Z,79.00
2017-05-13T04:27:06.347Z,80.20
2017-05-13T04:29:35.542Z,80.20
2017-05-13T04:32:04.582Z,80.30
2017-05-13T04:34:33.633Z,80.90
2017-05-13T04:37:03.445Z,82.20
2017-05-13T04:39:32.553Z,82.60
2017-05-13T04:42:02.355Z,83.20
2017-05-13T04:44:31.452Z,83.70
2017-05-13T04:47:00.498Z,83.50
2017-05-13T04:49:29.651Z,81.40
2017-05-13T04:51:59.465Z,79.60
2017-05-13T04:54:29.266Z,80.80
2017-05-13T04:56:58.374Z,81.30
2017-05-13T04:59:28.172Z,80.40
2017-05-13T05:01:57.359Z,81.90
2017-05-13T05:04:26.413Z,80.50
2017-05-13T05:06:55.492Z,80.20
2017-05-13T05:09:24.575Z,82.00
2017-05-13T05:11:54.378Z,80.90
2017-05-13T05:14:24.206Z,80.30
2017-05-13T05:16:53.990Z,81.60
2017-05-13T05:19:23.125Z,81.60
2017-05-13T05:21:52.177Z,82.30
2017-05-13T05:24:21.383Z,82.30
2017-05-13T05:26:50.441Z,82.30
2017-05-13T05:29:19.489Z,81.70
2017-05-13T05:31:49.304Z,82.60
2017-05-13T05:34:19.120Z,82.20
2017-05-13T05:36:49.039Z,82.80
2017-05-13T05:39:18.865Z,82.80
2017-05-13T05:41:47.931Z,83.80
2017-05-13T05:44:17.033Z,83.90
2017-05-13T05:46:46.835Z,82.60
2017-05-13T05:49:15.887Z,84.00
2017-05-13T05:51:45.056Z,83.20
2017-05-13T05:54:14.849Z,83.10
2017-05-13T05:56:44.645Z,82.50
2017-05-13T05:59:13.688Z,82.80
2017-05-13T06:01:42.756Z,83.60
2017-05-13T06:04:12.534Z,82.60
2017-05-13T06:06:41.657Z,81.70
2017-05-13T06:09:11.462Z,82.00
2017-05-13T06:11:40.586Z,80.60
2017-05-13T06:14:10.394Z,80.80
2017-05-13T06:16:40.201Z,80.80
2017-05-13T06:19:09.977Z,81.30
2017-05-13T06:21:39.142Z,79.20
2017-05-13T06:24:08.201Z,78.60
2017-05-13T06:26:38.016Z,78.90
2017-05-13T06:29:07.839Z,79.10
2017-05-13T06:31:36.921Z,78.90
2017-05-13T06:34:06.711Z,79.20
2017-05-13T06:36:35.779Z,78.60
2017-05-13T06:39:04.919Z,79.10
2017-05-13T06:41:34.053Z,79.10
2017-05-13T06:44:03.097Z,79.30
2017-05-13T06:46:32.245Z,78.90
2017-05-13T06:49:01.287Z,78.00
2017-05-13T06:51:30.407Z,78.20
2017-05-13T06:53:59.479Z,77.70
2017-05-13T06:56:28.605Z,77.00
2017-05-13T06:58:58.414Z,77.10
2017-05-13T07:01:28.217Z,77.60
2017-05-13T07:03:58.755Z,77.10
2017-05-13T07:06:28.210Z,76.70
2017-05-13T07:08:57.354Z,77.30
2017-05-13T07:11:27.171Z,78.30
2017-05-13T07:13:56.981Z,78.10
2017-05-13T07:16:26.799Z,76.80
2017-05-13T07:18:55.858Z,76.80
2017-05-13T07:21:24.921Z,77.50
2017-05-13T07:23:54.074Z,76.80
2017-05-13T07:26:23.145Z,76.70
2017-05-13T07:28:52.938Z,76.60
2017-05-13T07:31:22.071Z,76.10
2017-05-13T07:33:51.869Z,74.50
2017-05-13T07:36:21.677Z,74.60
2017-05-13T07:38:51.490Z,74.70
2017-05-13T07:41:20.536Z,74.60
2017-05-13T07:43:49.699Z,74.80
2017-05-13T07:46:18.747Z,74.90
2017-05-13T07:48:47.818Z,75.80
2017-05-13T07:51:17.605Z,77.10
2017-05-13T07:53:46.729Z,78.20
2017-05-13T07:56:16.521Z,77.60
2017-05-13T07:58:45.643Z,77.70
2017-05-13T08:01:15.458Z,78.10
2017-05-13T08:03:45.273Z,78.40
2017-05-13T08:06:15.084Z,79.00
2017-05-13T08:08:44.899Z,78.40
2017-05-13T08:11:14.803Z,78.10
2017-05-13T08:13:43.907Z,78.00
2017-05-13T08:16:13.718Z,78.20
2017-05-13T08:18:43.572Z,78.40
2017-05-13T08:21:13.329Z,77.90
2017-05-13T08:23:42.411Z,78.00
2017-05-13T08:26:11.553Z,78.10
2017-05-13T08:28:40.613Z,78.80
2017-05-13T08:31:09.666Z,79.50
2017-05-13T08:33:38.836Z,79.00
2017-05-13T08:36:07.881Z,78.90
2017-05-13T08:38:36.949Z,79.10
2017-05-13T08:41:06.005Z,79.70
2017-05-13T08:43:35.931Z,80.70
2017-05-13T08:46:05.747Z,80.70
2017-05-13T08:48:36.545Z,81.60
2017-05-13T08:51:05.585Z,81.20
2017-05-13T08:53:34.643Z,81.00
2017-05-13T08:56:03.693Z,80.80
2017-05-13T08:58:32.867Z,81.10
2017-05-13T09:01:02.649Z,81.80
2017-05-13T09:03:31.705Z,82.30
2017-05-13T09:06:00.862Z,83.40
2017-05-13T09:08:30.673Z,84.30
2017-05-13T09:11:00.462Z,84.20
2017-05-13T09:13:29.592Z,84.70
2017-05-13T09:15:59.374Z,84.80
2017-05-13T09:18:28.444Z,85.30
2017-05-13T09:20:57.593Z,85.30
2017-05-13T09:23:27.493Z,85.50
2017-05-13T09:25:57.322Z,86.70
2017-05-13T09:28:27.142Z,86.60
2017-05-13T09:30:56.193Z,87.10
2017-05-13T09:33:25.237Z,86.10
2017-05-13T09:35:54.317Z,86.50
2017-05-13T09:38:24.219Z,86.90
2017-05-13T09:40:53.321Z,86.50
2017-05-13T09:43:23.135Z,85.90
2017-05-13T09:45:52.950Z,85.90
2017-05-13T09:48:22.753Z,85.30
2017-05-13T09:50:52.557Z,85.40
2017-05-13T09:53:21.623Z,85.50
2017-05-13T09:55:50.773Z,85.50
2017-05-13T09:58:20.565Z,85.40
2017-05-13T10:00:49.625Z,85.20
2017-05-13T10:03:18.847Z,84.90
2017-05-13T10:05:47.969Z,84.50
2017-05-13T10:08:17.893Z,84.80
2017-05-13T10:10:47.689Z,84.00
2017-05-13T10:13:17.487Z,83.80
2017-05-13T10:15:47.323Z,84.20
2017-05-13T10:18:16.400Z,84.10
2017-05-13T10:20:45.494Z,84.40
2017-05-13T10:23:15.303Z,83.80
2017-05-13T10:25:45.118Z,83.20
2017-05-13T10:28:14.910Z,83.50
2017-05-13T10:30:43.973Z,82.00
2017-05-13T10:33:13.139Z,80.80
2017-05-13T10:35:42.231Z,80.00
2017-05-13T10:38:12.035Z,78.90
2017-05-13T10:40:41.841Z,79.50
2017-05-13T10:43:10.941Z,79.20
2017-05-13T10:45:40.753Z,79.60
2017-05-13T10:48:10.565Z,79.00
2017-05-13T10:50:40.397Z,78.80
2017-05-13T10:53:09.480Z,78.60
2017-05-13T10:55:39.273Z,79.10
2017-05-13T10:58:08.386Z,79.00
2017-05-13T11:00:38.181Z,78.30
2017-05-13T11:03:07.305Z,79.10
2017-05-13T11:05:37.219Z,78.10
2017-05-13T11:08:07.039Z,77.90
2017-05-13T11:10:36.130Z,78.00
2017-05-13T11:13:05.934Z,78.50
2017-05-13T11:15:35.736Z,77.00
2017-05-13T11:18:04.793Z,76.20
2017-05-13T11:20:33.837Z,76.70
2017-05-13T11:23:03.641Z,76.70
2017-05-13T11:25:33.439Z,75.60
2017-05-13T11:28:02.489Z,75.20
2017-05-13T11:30:31.535Z,75.10
2017-05-13T11:33:00.585Z,75.50
2017-05-13T11:35:29.751Z,75.50
2017-05-13T11:37:59.663Z,74.90
2017-05-13T11:40:29.480Z,74.90
2017-05-13T11:42:59.288Z,73.70
2017-05-13T11:45:29.095Z,74.50
2017-05-13T11:47:58.906Z,73.90
2017-05-13T11:50:28.690Z,73.80
2017-05-13T11:52:57.822Z,73.60
2017-05-13T11:55:27.626Z,73.10
2017-05-13T11:57:57.453Z,72.60
2017-05-13T12:00:27.249Z,73.10
2017-05-13T12:02:57.078Z,73.20
2017-05-13T12:05:26.896Z,73.30
2017-05-13T12:07:55.954Z,71.30
2017-05-13T12:10:24.994Z,71.30
2017-05-13T12:12:54.167Z,71.00
2017-05-13T12:15:23.950Z,69.60
2017-05-13T12:17:53.006Z,68.10
2017-05-13T12:20:22.085Z,67.20
2017-05-13T12:22:51.157Z,63.70
2017-05-13T12:25:20.991Z,61.90
2017-05-13T12:27:50.885Z,59.00
2017-05-13T12:30:20.674Z,60.00
2017-05-13T12:32:50.209Z,59.40
2017-05-13T12:35:20.037Z,59.40
2017-05-13T12:37:49.966Z,58.30
2017-05-13T12:40:19.038Z,57.40
2017-05-13T12:42:48.849Z,58.70
2017-05-13T12:45:18.761Z,58.50
2017-05-13T12:47:48.553Z,56.60
2017-05-13T12:50:17.665Z,54.70
2017-05-13T12:52:47.485Z,55.00
2017-05-13T12:55:17.293Z,55.50
2017-05-13T12:57:46.401Z,55.50
2017-05-13T13:00:16.301Z,56.90
2017-05-13T13:02:46.121Z,56.90
2017-05-13T13:05:15.929Z,56.20
2017-05-13T13:07:45.714Z,56.10
2017-05-13T13:10:14.778Z,56.30
2017-05-13T13:12:43.838Z,56.10
2017-05-13T13:15:13.762Z,55.60
2017-05-13T13:17:43.564Z,56.10
2017-05-13T13:20:13.384Z,56.40
2017-05-13T13:22:43.169Z,55.90
2017-05-13T13:25:12.302Z,56.00
2017-05-13T13:27:41.361Z,56.40
2017-05-13T13:30:10.434Z,56.30
2017-05-13T13:32:39.513Z,57.50
2017-05-13T13:35:08.572Z,57.00
2017-05-13T13:37:38.351Z,56.60
2017-05-13T13:40:07.420Z,54.60
2017-05-13T13:42:36.579Z,53.20
2017-05-13T13:45:06.377Z,50.70
2017-05-13T13:47:35.442Z,49.80
2017-05-13T13:50:04.581Z,46.00
2017-05-13T13:52:34.394Z,44.70
2017-05-13T13:55:04.240Z,44.80
2017-05-13T13:57:33.397Z,45.00
2017-05-13T14:00:03.210Z,44.90
2017-05-13T14:02:32.257Z,45.30
2017-05-13T14:05:01.316Z,41.90
2017-05-13T14:07:30.386Z,42.70
2017-05-13T14:09:59.449Z,43.50
2017-05-13T14:12:28.520Z,43.70
2017-05-13T14:14:57.586Z,45.70
2017-05-13T14:17:27.393Z,46.90
2017-05-13T14:19:57.197Z,48.70
2017-05-13T14:22:26.253Z,50.20
2017-05-13T14:24:55.301Z,50.80
2017-05-13T14:27:25.109Z,51.10
2017-05-13T14:29:54.922Z,51.80
2017-05-13T14:32:24.733Z,52.40
2017-05-13T14:34:54.549Z,53.30
2017-05-13T14:37:24.374Z,53.70
2017-05-13T14:39:54.154Z,53.30
2017-05-13T14:42:23.221Z,53.90
2017-05-13T14:44:52.364Z,54.20
2017-05-13T14:47:22.169Z,54.40
2017-05-13T14:49:51.278Z,56.00
2017-05-13T14:52:21.093Z,56.30
2017-05-13T14:54:50.897Z,55.90
2017-05-13T14:57:20.728Z,55.40
2017-05-13T14:59:49.911Z,56.50
2017-05-13T15:02:18.953Z,56.80
2017-05-13T15:04:48.111Z,57.20
2017-05-13T15:07:18.022Z,57.50
2017-05-13T15:09:47.862Z,57.20
2017-05-13T15:12:16.905Z,58.10
2017-05-13T15:14:46.033Z,58.40
2017-05-13T15:17:15.096Z,58.50
2017-05-13T15:19:44.231Z,58.70
2017-05-13T15:22:14.019Z,58.90
2017-05-13T15:24:43.818Z,59.10
2017-05-13T15:27:12.944Z,60.00
2017-05-13T15:29:42.745Z,61.10
2017-05-13T15:32:12.545Z,62.00
2017-05-13T15:34:41.653Z,63.10
2017-05-13T15:37:11.446Z,64.40
2017-05-13T15:39:40.505Z,65.00
2017-05-13T15:42:09.551Z,65.20
2017-05-13T15:44:38.657Z,64.50
2017-05-13T15:47:08.480Z,63.80
2017-05-13T15:49:37.560Z,64.80
2017-05-13T15:52:06.661Z,63.80
2017-05-13T15:54:36.482Z,64.30
2017-05-13T15:57:06.407Z,63.20
2017-05-13T15:59:35.495Z,63.20
2017-05-13T16:02:05.321Z,62.80
2017-05-13T16:04:34.395Z,63.30
2017-05-13T16:07:04.203Z,62.00
2017-05-13T16:09:34.132Z,62.00
2017-05-13T16:12:03.934Z,63.40
2017-05-13T16:14:33.842Z,62.90
2017-05-13T16:17:03.629Z,63.00
2017-05-13T16:19:32.825Z,61.90
2017-05-13T16:22:02.545Z,61.10
2017-05-13T16:24:31.661Z,61.50
2017-05-13T16:27:01.478Z,61.00
2017-05-13T16:29:31.297Z,61.70
2017-05-13T16:32:01.107Z,61.30
2017-05-13T16:34:30.903Z,62.00
2017-05-13T16:37:00.013Z,61.10
2017-05-13T16:39:29.812Z,61.10
2017-05-13T16:41:58.923Z,61.50
2017-05-13T16:44:28.719Z,60.00
2017-05-13T16:46:57.829Z,59.60
2017-05-13T16:49:27.655Z,59.90
2017-05-13T16:51:56.705Z,60.80
2017-05-13T16:54:25.829Z,60.60
2017-05-13T16:56:55.614Z,60.00
2017-05-13T16:59:24.675Z,60.30
2017-05-13T17:01:53.722Z,60.80
2017-05-13T17:04:22.804Z,62.10
2017-05-13T17:06:51.845Z,62.50
2017-05-13T17:09:21.733Z,64.30
2017-05-13T17:11:51.520Z,63.80
2017-05-13T17:14:20.640Z,63.30
2017-05-13T17:16:50.492Z,63.70
2017-05-13T17:19:19.553Z,64.30
2017-05-13T17:21:49.365Z,64.20
2017-05-13T17:24:19.183Z,66.10
2017-05-13T17:26:48.995Z,66.40
2017-05-13T17:29:18.812Z,66.30
2017-05-13T17:31:48.589Z,66.40
2017-05-13T17:34:17.672Z,68.60
2017-05-13T17:36:46.812Z,68.00
2017-05-13T17:39:16.625Z,68.20
2017-05-13T17:41:46.430Z,69.00
2017-05-13T17:44:15.477Z,69.80
2017-05-13T17:46:44.563Z,69.50
2017-05-13T17:49:13.599Z,67.90
2017-05-13T17:51:42.661Z,68.90
2017-05-13T17:54:11.755Z,67.40
2017-05-13T17:56:40.816Z,66.90
2017-05-13T17:59:10.627Z,69.00
2017-05-13T18:01:40.439Z,69.40
2017-05-13T18:04:10.221Z,70.60
2017-05-13T18:06:39.348Z,71.00
2017-05-13T18:09:09.139Z,70.50
2017-05-13T18:11:38.278Z,70.40
2017-05-13T18:14:07.326Z,71.50
2017-05-13T18:16:36.449Z,72.30
2017-05-13T18:19:06.238Z,73.40
2017-05-13T18:21:35.371Z,73.30
2017-05-13T18:24:04.446Z,73.30
2017-05-13T18:26:34.239Z,72.40
2017-05-13T18:29:03.365Z,71.50
2017-05-13T18:31:33.156Z,72.70
2017-05-13T18:34:02.323Z,71.10
2017-05-13T18:36:31.389Z,70.70
2017-05-13T18:39:00.476Z,70.50
2017-05-13T18:41:29.536Z,71.40
2017-05-13T18:43:58.645Z,71.50
2017-05-13T18:46:27.681Z,71.40
2017-05-13T18:48:56.847Z,71.30
2017-05-13T18:51:26.665Z,71.70
2017-05-13T18:53:56.583Z,71.70
2017-05-13T18:56:25.637Z,71.90
2017-05-13T18:58:54.705Z,72.00
2017-05-13T19:01:23.862Z,72.30
2017-05-13T19:03:53.679Z,72.40
2017-05-13T19:06:23.512Z,72.70
2017-05-13T19:08:52.594Z,73.20
2017-05-13T19:11:22.421Z,74.00
2017-05-13T19:13:51.602Z,73.90
2017-05-13T19:16:21.402Z,74.00
2017-05-13T19:18:51.315Z,74.30
2017-05-13T19:21:21.129Z,74.90
2017-05-13T19:23:51.469Z,75.10
2017-05-13T19:26:20.532Z,75.50
2017-05-13T19:28:50.445Z,75.50
2017-05-13T19:31:19.643Z,75.90
2017-05-13T19:33:49.600Z,77.00
2017-05-13T19:36:18.774Z,76.30
2017-05-13T19:38:47.814Z,76.30
2017-05-13T19:41:17.630Z,76.80
2017-05-13T19:43:46.778Z,77.00
2017-05-13T19:46:16.676Z,77.10
2017-05-13T19:48:46.289Z,77.80
2017-05-13T19:51:16.403Z,77.50
2017-05-13T19:53:45.519Z,77.70
2017-05-13T19:56:15.426Z,77.80
2017-05-13T19:58:44.585Z,78.00
2017-05-13T20:01:14.489Z,78.40
2017-05-13T20:03:44.308Z,78.60
2017-05-13T20:06:14.240Z,78.90
2017-05-13T20:08:43.288Z,78.80
2017-05-13T20:11:12.409Z,79.00
2017-05-13T20:13:42.241Z,79.20
2017-05-13T20:16:11.332Z,79.10
2017-05-13T20:18:40.409Z,79.20
2017-05-13T20:21:10.205Z,79.60
2017-05-13T20:23:39.253Z,79.50
2017-05-13T20:26:08.417Z,80.30
2017-05-13T20:28:38.297Z,80.00
2017-05-13T20:31:07.441Z,80.10
2017-05-13T20:33:36.497Z,80.20
2017-05-13T20:36:05.553Z,79.80
2017-05-13T20:38:34.588Z,79.90
2017-05-13T20:41:03.659Z,80.30
2017-05-13T20:43:32.817Z,80.40
2017-05-13T20:46:02.742Z,80.30
2017-05-13T20:48:31.795Z,80.30
2017-05-13T20:51:00.858Z,80.30
2017-05-13T20:53:30.021Z,80.90
2017-05-13T20:55:59.935Z,81.30
2017-05-13T20:58:29.717Z,81.60
2017-05-13T21:00:58.885Z,81.40
2017-05-13T21:03:28.054Z,81.50
2017-05-13T21:05:57.137Z,82.00
2017-05-13T21:08:26.238Z,82.10
2017-05-13T21:10:55.306Z,82.00
2017-05-13T21:13:24.409Z,82.40
2017-05-13T21:15:54.331Z,82.30
2017-05-13T21:18:24.181Z,82.60
2017-05-13T21:20:53.236Z,82.40
2017-05-13T21:23:23.027Z,82.40
2017-05-13T21:25:52.145Z,83.10
2017-05-13T21:28:21.959Z,83.60
2017-05-13T21:30:51.771Z,84.20
2017-05-13T21:33:21.590Z,84.80
2017-05-13T21:35:51.390Z,84.90
2017-05-13T21:38:21.208Z,86.20
2017-05-13T21:40:51.018Z,85.80
2017-05-13T21:43:20.161Z,85.90
2017-05-13T21:45:49.961Z,85.80
2017-05-13T21:48:19.005Z,85.90
2017-05-13T21:50:48.179Z,85.60
2017-05-13T21:53:17.217Z,85.90
2017-05-13T21:55:46.277Z,85.10
2017-05-13T21:58:15.345Z,86.20
2017-05-13T22:00:44.408Z,87.00
2017-05-13T22:03:13.449Z,87.30
2017-05-13T22:05:42.546Z,87.20
2017-05-13T22:08:12.350Z,87.50
2017-05-13T22:10:41.469Z,87.40
2017-05-13T22:13:10.517Z,87.30
2017-05-13T22:15:39.631Z,86.80
2017-05-13T22:18:08.768Z,87.10
2017-05-13T22:20:37.830Z,86.90
2017-05-13T22:23:06.917Z,86.90
2017-05-13T22:25:36.033Z,87.00
2017-05-13T22:28:05.824Z,86.60
2017-05-13T22:30:35.095Z,87.40
2017-05-13T22:33:04.901Z,87.90
2017-05-13T22:35:34.003Z,88.30
2017-05-13T22:38:04.062Z,89.50
2017-05-13T22:40:33.457Z,88.50
2017-05-13T22:43:02.592Z,88.60
2017-05-13T22:45:31.955Z,89.20
2017-05-13T22:48:01.073Z,89.60
2017-05-13T22:50:30.926Z,89.60
2017-05-13T22:53:00.023Z,89.60
2017-05-13T22:55:29.123Z,89.70
2017-05-13T22:57:58.206Z,89.00
2017-05-13T23:00:27.272Z,89.90
2017-05-13T23:02:57.191Z,90.10
2017-05-13T23:05:27.013Z,90.20
2017-05-13T23:07:56.071Z,90.10
2017-05-13T23:10:25.914Z,90.20
2017-05-13T23:12:54.977Z,90.50
2017-05-13T23:15:24.721Z,90.40
2017-05-13T23:17:54.106Z,90.40
2017-05-13T23:20:23.613Z,90.20
2017-05-13T23:22:53.578Z,89.40
2017-05-13T23:25:23.397Z,89.60
2017-05-13T23:27:52.570Z,89.90
2017-05-13T23:30:21.720Z,89.60
2017-05-13T23:32:50.870Z,89.60
2017-05-13T23:35:20.662Z,88.70
2017-05-13T23:37:49.716Z,88.70
2017-05-13T23:40:18.882Z,89.00
2017-05-13T23:42:48.664Z,89.40
2017-05-13T23:45:17.773Z,89.40
2017-05-13T23:47:46.883Z,89.20
2017-05-13T23:50:16.697Z,89.10
2017-05-13T23:52:46.514Z,89.50
2017-05-13T23:55:16.425Z,89.90
2017-05-13T23:57:46.243Z,89.90
